createdAt,value
2018-01-20T00:00:04.510Z,1007.68
2018-01-20T00:05:02.954Z,1007.73
2018-01-20T00:10:03.501Z,1007.73
2018-01-20T00:15:03.092Z,1007.72
2018-01-20T00:20:03.611Z,1007.63
2018-01-20T00:25:03.173Z,1007.3
2018-01-20T00:30:02.691Z,1007.41
2018-01-20T00:35:03.394Z,1007.43
2018-01-20T00:40:02.917Z,1007.4
2018-01-20T00:45:03.380Z,1007.39
2018-01-20T00:50:02.830Z,1007.39
2018-01-20T00:55:03.332Z,1007.41
2018-01-20T01:00:02.822Z,1007.43
2018-01-20T01:05:02.870Z,1007.28
2018-01-20T01:10:03.630Z,1007.22
2018-01-20T01:15:03.176Z,1007.1
2018-01-20T01:20:02.836Z,1007.18
2018-01-20T01:25:03.307Z,1007.16
2018-01-20T01:30:02.752Z,1007.15
2018-01-20T01:35:03.257Z,1007.24
2018-01-20T01:40:02.910Z,1007.25
2018-01-20T01:45:03.260Z,1007.33
2018-01-20T01:50:02.710Z,1007.27
2018-01-20T01:55:03.174Z,1007.33
2018-01-20T02:00:03.672Z,1007.36
2018-01-20T02:05:03.243Z,1007.33
2018-01-20T02:10:02.867Z,1007.31
2018-01-20T02:15:03.579Z,1007.25
2018-01-20T02:20:03.165Z,1007.3
2018-01-20T02:25:03.598Z,1007.1
2018-01-20T02:30:03.099Z,1007.13
2018-01-20T02:35:02.733Z,1007.22
2018-01-20T02:40:03.270Z,1007.27
2018-01-20T02:45:02.717Z,1007.11
2018-01-20T02:50:03.382Z,1007.1
2018-01-20T02:55:02.913Z,1006.98
2018-01-20T03:00:03.551Z,1006.98
2018-01-20T03:05:03.144Z,1006.84
2018-01-20T03:10:03.570Z,1006.81
2018-01-20T03:15:02.926Z,1006.8
2018-01-20T03:20:03.524Z,1006.68
2018-01-20T03:25:02.977Z,1006.7
2018-01-20T03:30:03.609Z,1006.72
2018-01-20T03:35:03.055Z,1006.45
2018-01-20T03:40:02.702Z,1006.4
2018-01-20T03:45:03.111Z,1006.38
2018-01-20T03:50:03.591Z,1006.37
2018-01-20T03:55:02.994Z,1006.3
2018-01-20T04:00:03.582Z,1006.35
2018-01-20T04:05:03.128Z,1006.31
2018-01-20T04:10:03.686Z,1006.16
2018-01-20T04:15:03.095Z,1006.1
2018-01-20T04:20:03.565Z,1006.08
2018-01-20T04:25:03.015Z,1006.1
2018-01-20T04:30:03.582Z,1006.13
2018-01-20T04:35:03.116Z,1006.1
2018-01-20T04:40:03.635Z,1006.1
2018-01-20T04:45:03.289Z,1005.95
2018-01-20T04:50:02.920Z,1006.01
2018-01-20T04:55:03.549Z,1005.95
2018-01-20T05:00:03.099Z,1005.86
2018-01-20T05:05:03.506Z,1005.8
2018-01-20T05:10:03.012Z,1005.77
2018-01-20T05:15:03.647Z,1005.63
2018-01-20T05:20:03.301Z,1005.65
2018-01-20T05:25:02.764Z,1005.66
2018-01-20T05:30:03.606Z,1005.63
2018-01-20T05:35:03.166Z,1005.57
2018-01-20T05:40:02.768Z,1005.71
2018-01-20T05:45:03.358Z,1005.61
2018-01-20T05:50:02.838Z,1005.6
2018-01-20T05:55:03.263Z,1005.66
2018-01-20T06:00:02.731Z,1005.53
2018-01-20T06:05:03.327Z,1005.56
2018-01-20T06:10:03.050Z,1005.53
2018-01-20T06:15:03.507Z,1005.47
2018-01-20T06:20:03.090Z,1005.52
2018-01-20T06:25:03.664Z,1005.49
2018-01-20T06:30:03.313Z,1005.5
2018-01-20T06:35:02.904Z,1005.46
2018-01-20T06:40:03.399Z,1005.41
2018-01-20T06:45:02.936Z,1005.25
2018-01-20T06:50:03.508Z,1005.26
2018-01-20T06:55:03.088Z,1005.24
2018-01-20T07:00:03.474Z,1005.22
2018-01-20T07:05:03.123Z,1005.13
2018-01-20T07:10:02.772Z,1005.09
2018-01-20T07:15:03.360Z,1005.06
2018-01-20T07:20:02.814Z,1005.07
2018-01-20T07:25:03.396Z,1005.07
2018-01-20T07:30:03.150Z,1005.1
2018-01-20T07:35:03.620Z,1005.04
2018-01-20T07:40:03.282Z,1005.13
2018-01-20T07:45:02.732Z,1004.97
2018-01-20T07:50:03.341Z,1005
2018-01-20T07:55:02.957Z,1005.02
2018-01-20T08:00:03.454Z,1005
2018-01-20T08:05:02.859Z,1005
2018-01-20T08:10:03.369Z,1004.91
2018-01-20T08:15:02.832Z,1004.88
2018-01-20T08:20:03.469Z,1004.93
2018-01-20T08:25:03.145Z,1004.87
2018-01-20T08:30:02.685Z,1004.86
2018-01-20T08:35:03.236Z,1004.8
2018-01-20T08:40:02.765Z,1004.79
2018-01-20T08:45:03.210Z,1004.84
2018-01-20T08:50:03.706Z,1004.65
2018-01-20T08:55:03.182Z,1004.6
2018-01-20T09:00:02.811Z,1004.54
2018-01-20T09:05:03.461Z,1004.51
2018-01-20T09:10:02.932Z,1004.46
2018-01-20T09:15:03.300Z,1004.52
2018-01-20T09:20:02.800Z,1004.43
2018-01-20T09:25:03.286Z,1004.4
2018-01-20T09:30:02.732Z,1004.31
2018-01-20T09:35:03.278Z,1004.16
2018-01-20T09:40:02.804Z,1004.08
2018-01-20T09:45:03.381Z,1004.03
2018-01-20T09:50:02.844Z,1004.04
2018-01-20T09:55:03.890Z,1004.05
2018-01-20T10:00:03.473Z,1003.95
2018-01-20T10:05:03.034Z,1003.82
2018-01-20T10:10:03.624Z,1003.74
2018-01-20T10:15:03.205Z,1003.72
2018-01-20T10:20:02.787Z,1003.73
2018-01-20T10:25:03.154Z,1003.62
2018-01-20T10:30:02.872Z,1003.69
2018-01-20T10:35:03.612Z,1003.7
2018-01-20T10:40:03.136Z,1003.63
2018-01-20T10:45:02.676Z,1003.47
2018-01-20T10:50:03.222Z,1003.44
2018-01-20T10:55:03.641Z,1003.3
2018-01-20T11:00:03.219Z,1003.23
2018-01-20T11:05:02.814Z,1003.11
2018-01-20T11:10:03.479Z,1003
2018-01-20T11:15:02.853Z,1002.85
2018-01-20T11:20:03.547Z,1002.76
2018-01-20T11:25:03.086Z,1002.65
2018-01-20T11:30:02.687Z,1002.58
2018-01-20T11:35:03.260Z,1002.53
2018-01-20T11:40:02.806Z,1002.35
2018-01-20T11:45:03.383Z,1002.28
2018-01-20T11:50:03.053Z,1002.15
2018-01-20T11:55:03.499Z,1002.05
2018-01-20T12:00:03.096Z,1001.81
2018-01-20T12:05:02.719Z,1001.73
2018-01-20T12:10:03.374Z,1001.64
2018-01-20T12:15:02.796Z,1001.48
2018-01-20T12:20:03.504Z,1001.4
2018-01-20T12:25:02.989Z,1001.17
2018-01-20T12:30:03.618Z,1001.1
2018-01-20T12:35:03.249Z,1000.94
2018-01-20T12:40:02.710Z,1000.91
2018-01-20T12:45:03.343Z,1000.73
2018-01-20T12:50:02.837Z,1000.62
2018-01-20T12:55:03.441Z,1000.48
2018-01-20T13:00:03.159Z,1000.47
2018-01-20T13:05:02.795Z,1000.34
2018-01-20T13:10:03.460Z,1000.29
2018-01-20T13:15:02.867Z,1000.21
2018-01-20T13:20:03.452Z,1000.1
2018-01-20T13:25:02.919Z,1000.06
2018-01-20T13:30:03.478Z,999.88
2018-01-20T13:35:02.996Z,999.8
2018-01-20T13:40:03.651Z,999.73
2018-01-20T13:45:03.277Z,999.72
2018-01-20T13:50:02.846Z,999.74
2018-01-20T13:55:03.324Z,999.57
2018-01-20T14:00:03.205Z,999.61
2018-01-20T14:05:02.981Z,999.63
2018-01-20T14:10:02.690Z,999.6
2018-01-20T14:15:03.289Z,999.56
2018-01-20T14:20:03.035Z,999.61
2018-01-20T14:25:03.475Z,999.54
2018-01-20T14:30:02.927Z,999.5
2018-01-20T14:35:03.493Z,999.37
2018-01-20T14:40:03.104Z,999.36
2018-01-20T14:45:02.827Z,999.27
2018-01-20T14:50:03.319Z,999.24
2018-01-20T14:55:03.104Z,999.22
2018-01-20T15:00:02.747Z,999.19
2018-01-20T15:05:03.458Z,999.15
2018-01-20T15:10:03.010Z,999.15
2018-01-20T15:15:03.618Z,999.09
2018-01-20T15:20:03.425Z,999.1
2018-01-20T15:25:03.689Z,999.03
2018-01-20T15:30:03.249Z,998.94
2018-01-20T15:35:03.081Z,998.96
2018-01-20T15:40:02.753Z,998.89
2018-01-20T15:45:03.342Z,998.87
2018-01-20T15:50:02.991Z,998.96
2018-01-20T15:55:03.657Z,998.86
2018-01-20T16:00:03.118Z,998.78
2018-01-20T16:05:02.762Z,998.79
2018-01-20T16:10:03.445Z,998.84
2018-01-20T16:15:03.079Z,998.9
2018-01-20T16:20:02.812Z,998.93
2018-01-20T16:25:03.367Z,998.96
2018-01-20T16:30:02.920Z,998.97
2018-01-20T16:35:03.459Z,998.9
2018-01-20T16:40:03.120Z,999.06
2018-01-20T16:45:03.668Z,999.03
2018-01-20T16:50:03.179Z,998.91
2018-01-20T16:55:02.839Z,999.07
2018-01-20T17:00:03.397Z,999.09
2018-01-20T17:05:02.998Z,999.09
2018-01-20T17:10:03.671Z,999.11
2018-01-20T17:15:03.206Z,999.15
2018-01-20T17:20:02.693Z,999.17
2018-01-20T17:25:03.209Z,999.19
2018-01-20T17:30:02.724Z,999.18
2018-01-20T17:35:03.262Z,999.23
2018-01-20T17:40:02.938Z,999.32
2018-01-20T17:45:03.588Z,999.31
2018-01-20T17:50:03.158Z,999.24
2018-01-20T17:55:02.701Z,999.32
2018-01-20T18:00:03.185Z,999.36
2018-01-20T18:05:02.821Z,999.3
2018-01-20T18:10:03.470Z,999.33
2018-01-20T18:15:03.054Z,999.29
2018-01-20T18:20:03.519Z,999.32
2018-01-20T18:25:03.245Z,999.35
2018-01-20T18:30:02.927Z,999.34
2018-01-20T18:35:03.520Z,999.39
2018-01-20T18:40:03.051Z,999.35
2018-01-20T18:45:02.736Z,999.4
2018-01-20T18:50:03.393Z,999.41
2018-01-20T18:55:03.047Z,999.45
2018-01-20T19:00:03.534Z,999.58
2018-01-20T19:05:03.148Z,999.56
2018-01-20T19:10:02.803Z,999.58
2018-01-20T19:15:03.396Z,999.74
2018-01-20T19:20:03.014Z,999.9
2018-01-20T19:25:02.669Z,1000.01
2018-01-20T19:30:03.397Z,1000.06
2018-01-20T19:35:02.998Z,1000.19
2018-01-20T19:40:03.535Z,1000.21
2018-01-20T19:45:03.040Z,1000.34
2018-01-20T19:50:02.701Z,1000.37
2018-01-20T19:55:03.362Z,1000.43
2018-01-20T20:00:02.874Z,1000.43
2018-01-20T20:05:03.318Z,1000.49
2018-01-20T20:10:02.983Z,1000.62
2018-01-20T20:15:03.570Z,1000.57
2018-01-20T20:20:03.336Z,1000.54
2018-01-20T20:25:02.818Z,1000.62
2018-01-20T20:30:03.468Z,1000.6
2018-01-20T20:35:03.166Z,1000.72
2018-01-20T20:40:02.774Z,1000.79
2018-01-20T20:45:03.410Z,1000.84
2018-01-20T20:50:03.078Z,1000.94
2018-01-20T20:55:03.566Z,1000.99
2018-01-20T21:00:03.020Z,1001.02
2018-01-20T21:05:02.753Z,1000.99
2018-01-20T21:10:03.453Z,1001.11
2018-01-20T21:15:02.993Z,1001.12
2018-01-20T21:20:02.839Z,1001.2
2018-01-20T21:25:03.513Z,1001.27
2018-01-20T21:30:03.181Z,1001.35
2018-01-20T21:35:02.921Z,1001.44
2018-01-20T21:40:03.568Z,1001.55
2018-01-20T21:45:03.370Z,1001.61
2018-01-20T21:50:02.866Z,1001.59
2018-01-20T21:55:03.390Z,1001.83
2018-01-20T22:00:03.292Z,1001.97
2018-01-20T22:05:02.809Z,1002
2018-01-20T22:10:03.409Z,1002.09
2018-01-20T22:15:03.031Z,1002.21
2018-01-20T22:20:02.665Z,1002.19
2018-01-20T22:25:03.213Z,1002.22
2018-01-20T22:30:03.852Z,1002.3
2018-01-20T22:35:03.473Z,1002.41
2018-01-20T22:40:03.024Z,1002.43
2018-01-20T22:45:02.820Z,1002.57
2018-01-20T22:50:03.566Z,1002.53
2018-01-20T22:55:03.268Z,1002.58
2018-01-20T23:00:02.858Z,1002.73
2018-01-20T23:05:03.639Z,1002.8
2018-01-20T23:10:03.232Z,1002.97
2018-01-20T23:15:02.728Z,1003.01
2018-01-20T23:20:03.393Z,1003.17
2018-01-20T23:25:03.006Z,1003.2
2018-01-20T23:30:03.502Z,1003.28
2018-01-20T23:35:03.127Z,1003.36
2018-01-20T23:40:03.686Z,1003.44
2018-01-20T23:45:03.202Z,1003.56
2018-01-20T23:50:02.754Z,1003.71
2018-01-20T23:55:03.309Z,1003.7
